createdAt,value
2019-01-13T00:00:43.463Z,97.10
2019-01-13T00:01:48.376Z,100.05
2019-01-13T00:02:51.739Z,100.25
2019-01-13T00:03:55.400Z,103.12
2019-01-13T00:04:58.689Z,101.53
2019-01-13T00:06:01.992Z,96.37
2019-01-13T00:07:05.356Z,93.72
2019-01-13T00:08:08.668Z,101.38
2019-01-13T00:09:12.536Z,100.15
2019-01-13T00:10:15.893Z,100.47
2019-01-13T00:11:19.273Z,119.28
2019-01-13T00:12:22.639Z,117.03
2019-01-13T00:13:25.938Z,115.90
2019-01-13T00:14:29.262Z,101.05
2019-01-13T00:15:32.544Z,94.37
2019-01-13T00:16:35.970Z,98.90
2019-01-13T00:17:39.347Z,92.22
2019-01-13T00:18:42.621Z,97.37
2019-01-13T00:19:45.909Z,105.80
2019-01-13T00:20:49.196Z,101.92
2019-01-13T00:21:52.582Z,98.33
2019-01-13T00:22:55.941Z,99.83
2019-01-13T00:23:59.292Z,106.85
2019-01-13T00:25:02.654Z,116.20
2019-01-13T00:26:05.943Z,94.22
2019-01-13T00:27:09.271Z,117.35
2019-01-13T00:28:12.563Z,117.67
2019-01-13T00:29:15.858Z,116.00
2019-01-13T00:30:19.823Z,90.60
2019-01-13T00:31:23.060Z,102.25
2019-01-13T00:32:26.375Z,95.80
2019-01-13T00:33:29.666Z,102.25
2019-01-13T00:34:32.960Z,93.00
2019-01-13T00:35:36.245Z,89.20
2019-01-13T00:36:39.542Z,87.20
2019-01-13T00:37:42.911Z,84.47
2019-01-13T00:38:46.204Z,87.88
2019-01-13T00:39:49.635Z,78.28
2019-01-13T00:40:52.927Z,74.22
2019-01-13T00:41:56.213Z,82.70
2019-01-13T00:42:59.926Z,83.62
2019-01-13T00:44:03.285Z,82.70
2019-01-13T00:45:08.417Z,84.03
2019-01-13T00:46:11.883Z,81.50
2019-01-13T00:47:15.173Z,80.92
2019-01-13T00:48:18.492Z,83.78
2019-01-13T00:49:21.777Z,83.55
2019-01-13T00:50:25.065Z,85.60
2019-01-13T00:51:28.364Z,80.85
2019-01-13T00:52:31.645Z,83.10
2019-01-13T00:53:34.947Z,80.62
2019-01-13T00:54:38.242Z,81.08
2019-01-13T00:55:41.535Z,81.40
2019-01-13T00:56:44.899Z,79.35
2019-01-13T00:57:48.185Z,85.97
2019-01-13T00:58:51.476Z,79.00
2019-01-13T00:59:54.764Z,80.50
2019-01-13T01:00:58.126Z,81.97
2019-01-13T01:02:01.412Z,83.52
2019-01-13T01:03:04.866Z,81.57
2019-01-13T01:04:08.187Z,84.10
2019-01-13T01:05:11.550Z,77.58
2019-01-13T01:06:14.839Z,85.38
2019-01-13T01:07:18.189Z,79.87
2019-01-13T01:08:21.552Z,87.02
2019-01-13T01:09:24.854Z,83.97
2019-01-13T01:10:28.162Z,86.35
2019-01-13T01:11:31.593Z,85.12
2019-01-13T01:12:34.955Z,80.20
2019-01-13T01:13:38.242Z,83.67
2019-01-13T01:14:41.642Z,89.00
2019-01-13T01:15:44.998Z,90.00
2019-01-13T01:16:48.351Z,85.53
2019-01-13T01:17:51.704Z,87.15
2019-01-13T01:18:55.069Z,83.35
2019-01-13T01:19:58.406Z,77.87
2019-01-13T01:21:01.863Z,87.35
2019-01-13T01:22:05.345Z,86.42
2019-01-13T01:23:09.037Z,91.25
2019-01-13T01:24:12.423Z,103.15
2019-01-13T01:25:17.391Z,90.10
2019-01-13T01:26:20.688Z,89.10
2019-01-13T01:27:23.985Z,86.75
2019-01-13T01:28:27.267Z,98.30
2019-01-13T01:29:30.551Z,83.97
2019-01-13T01:30:33.882Z,92.88
2019-01-13T01:31:37.242Z,89.65
2019-01-13T01:32:40.525Z,91.42
2019-01-13T01:33:43.879Z,84.75
2019-01-13T01:34:47.245Z,86.20
2019-01-13T01:35:50.579Z,90.95
2019-01-13T01:36:54.298Z,94.35
2019-01-13T01:37:57.735Z,104.30
2019-01-13T01:39:01.027Z,105.25
2019-01-13T01:40:07.583Z,123.28
2019-01-13T01:41:10.905Z,124.82
2019-01-13T01:42:14.189Z,109.05
2019-01-13T01:43:17.473Z,92.15
2019-01-13T01:44:20.759Z,93.07
2019-01-13T01:45:24.042Z,99.20
2019-01-13T01:46:27.365Z,92.42
2019-01-13T01:47:30.652Z,98.60
2019-01-13T01:48:33.945Z,103.72
2019-01-13T01:49:37.234Z,108.80
2019-01-13T01:50:40.528Z,100.33
2019-01-13T01:51:43.927Z,84.30
2019-01-13T01:52:47.211Z,89.07
2019-01-13T01:53:50.499Z,103.10
2019-01-13T01:54:53.789Z,94.17
2019-01-13T01:55:57.086Z,89.07
2019-01-13T01:57:00.478Z,93.45
2019-01-13T01:58:03.760Z,88.52
2019-01-13T01:59:07.049Z,92.80
2019-01-13T02:00:13.819Z,91.65
2019-01-13T02:01:17.109Z,85.28
2019-01-13T02:02:22.172Z,89.62
2019-01-13T02:03:25.467Z,85.75
2019-01-13T02:04:28.766Z,98.50
2019-01-13T02:05:32.024Z,93.78
2019-01-13T02:06:35.356Z,97.22
2019-01-13T02:07:38.655Z,96.45
2019-01-13T02:08:41.940Z,97.17
2019-01-13T02:09:45.299Z,96.22
2019-01-13T02:10:48.582Z,95.87
2019-01-13T02:11:51.869Z,100.38
2019-01-13T02:12:55.509Z,96.87
2019-01-13T02:13:58.800Z,94.00
2019-01-13T02:15:02.079Z,99.70
2019-01-13T02:16:05.370Z,95.10
2019-01-13T02:17:08.726Z,95.85
2019-01-13T02:18:12.047Z,99.85
2019-01-13T02:19:15.337Z,98.25
2019-01-13T02:20:19.638Z,100.15
2019-01-13T02:21:22.995Z,94.07
2019-01-13T02:22:26.288Z,90.75
2019-01-13T02:23:29.634Z,107.15
2019-01-13T02:24:32.917Z,103.10
2019-01-13T02:25:36.574Z,97.72
2019-01-13T02:26:39.874Z,98.40
2019-01-13T02:27:43.242Z,98.58
2019-01-13T02:28:46.567Z,90.92
2019-01-13T02:29:49.850Z,98.60
2019-01-13T02:30:53.132Z,97.97
2019-01-13T02:31:56.422Z,93.37
2019-01-13T02:32:59.775Z,98.58
2019-01-13T02:34:03.103Z,97.10
2019-01-13T02:35:08.125Z,95.50
2019-01-13T02:36:11.486Z,93.00
2019-01-13T02:37:14.791Z,103.20
2019-01-13T02:38:18.072Z,95.10
2019-01-13T02:39:21.735Z,91.32
2019-01-13T02:40:25.386Z,98.07
2019-01-13T02:41:29.138Z,95.67
2019-01-13T02:42:32.502Z,90.87
2019-01-13T02:43:35.787Z,94.95
2019-01-13T02:44:39.443Z,91.92
2019-01-13T02:45:42.744Z,96.02
2019-01-13T02:46:46.029Z,97.30
2019-01-13T02:47:49.343Z,96.85
2019-01-13T02:48:52.633Z,101.90
2019-01-13T02:49:55.953Z,100.62
2019-01-13T02:50:59.242Z,101.22
2019-01-13T02:52:02.535Z,101.85
2019-01-13T02:53:05.895Z,102.10
2019-01-13T02:54:09.246Z,89.30
2019-01-13T02:55:12.602Z,89.60
2019-01-13T02:56:15.891Z,101.78
2019-01-13T02:57:19.176Z,106.50
2019-01-13T02:58:22.844Z,111.57
2019-01-13T02:59:26.125Z,105.80
2019-01-13T03:00:29.469Z,102.90
2019-01-13T03:01:32.827Z,109.42
2019-01-13T03:02:36.118Z,109.45
2019-01-13T03:03:39.445Z,114.28
2019-01-13T03:04:42.761Z,96.87
2019-01-13T03:05:46.094Z,97.42
2019-01-13T03:06:49.381Z,105.47
2019-01-13T03:07:52.680Z,107.67
2019-01-13T03:08:56.036Z,111.85
2019-01-13T03:09:59.330Z,104.70
2019-01-13T03:11:02.967Z,100.33
2019-01-13T03:12:06.589Z,104.70
2019-01-13T03:13:09.883Z,100.50
2019-01-13T03:14:13.185Z,114.67
2019-01-13T03:15:19.980Z,103.35
2019-01-13T03:16:23.322Z,98.87
2019-01-13T03:17:26.618Z,105.97
2019-01-13T03:18:29.914Z,104.55
2019-01-13T03:19:34.142Z,103.58
2019-01-13T03:20:37.474Z,96.02
2019-01-13T03:21:40.822Z,105.65
2019-01-13T03:22:44.174Z,99.07
2019-01-13T03:23:47.794Z,97.65
2019-01-13T03:24:51.084Z,92.95
2019-01-13T03:25:54.664Z,95.40
2019-01-13T03:26:57.981Z,88.60
2019-01-13T03:28:01.266Z,99.77
2019-01-13T03:29:04.702Z,100.25
2019-01-13T03:30:13.982Z,106.72
2019-01-13T03:31:17.338Z,102.32
2019-01-13T03:32:20.632Z,101.42
2019-01-13T03:33:23.934Z,105.63
2019-01-13T03:34:27.231Z,104.47
2019-01-13T03:35:30.535Z,105.52
2019-01-13T03:36:33.838Z,100.22
2019-01-13T03:37:37.161Z,98.17
2019-01-13T03:38:40.453Z,101.18
2019-01-13T03:39:43.740Z,93.70
2019-01-13T03:40:47.035Z,90.00
2019-01-13T03:41:50.311Z,91.28
2019-01-13T03:42:53.722Z,93.25
2019-01-13T03:43:57.130Z,91.53
2019-01-13T03:45:00.407Z,96.02
2019-01-13T03:46:03.701Z,98.87
2019-01-13T03:47:06.997Z,102.45
2019-01-13T03:48:10.314Z,100.12
2019-01-13T03:49:13.672Z,105.92
2019-01-13T03:50:19.474Z,108.10
2019-01-13T03:51:22.764Z,103.92
2019-01-13T03:52:26.402Z,99.20
2019-01-13T03:53:30.081Z,106.63
2019-01-13T03:54:33.370Z,104.27
2019-01-13T03:55:36.695Z,106.05
2019-01-13T03:56:39.968Z,100.62
2019-01-13T03:57:43.268Z,99.13
2019-01-13T03:58:46.904Z,97.92
2019-01-13T03:59:50.195Z,97.08
2019-01-13T04:00:53.482Z,98.47
2019-01-13T04:01:56.772Z,89.97
2019-01-13T04:03:00.063Z,83.97
2019-01-13T04:04:03.395Z,96.90
2019-01-13T04:05:06.953Z,87.90
2019-01-13T04:06:10.238Z,88.05
2019-01-13T04:07:13.528Z,87.57
2019-01-13T04:08:16.807Z,91.92
2019-01-13T04:09:20.123Z,88.10
2019-01-13T04:10:23.408Z,92.80
2019-01-13T04:11:26.691Z,91.57
2019-01-13T04:12:29.982Z,94.58
2019-01-13T04:13:33.261Z,98.95
2019-01-13T04:14:36.588Z,98.35
2019-01-13T04:15:41.712Z,94.97
2019-01-13T04:16:45.385Z,93.52
2019-01-13T04:17:48.673Z,89.60
2019-01-13T04:18:51.962Z,96.12
2019-01-13T04:19:55.304Z,97.40
2019-01-13T04:20:58.608Z,94.92
2019-01-13T04:22:02.211Z,106.67
2019-01-13T04:23:05.504Z,101.60
2019-01-13T04:24:08.795Z,94.10
2019-01-13T04:25:12.189Z,98.78
2019-01-13T04:26:15.478Z,98.50
2019-01-13T04:27:18.760Z,92.57
2019-01-13T04:28:22.050Z,95.77
2019-01-13T04:29:25.715Z,93.58
2019-01-13T04:30:29.047Z,103.80
2019-01-13T04:31:32.484Z,98.62
2019-01-13T04:32:35.765Z,95.87
2019-01-13T04:33:39.055Z,98.67
2019-01-13T04:34:42.343Z,91.70
2019-01-13T04:35:45.696Z,96.20
2019-01-13T04:36:48.988Z,96.50
2019-01-13T04:37:52.269Z,94.75
2019-01-13T04:38:55.615Z,91.60
2019-01-13T04:39:58.902Z,96.17
2019-01-13T04:41:02.222Z,88.50
2019-01-13T04:42:05.506Z,88.37
2019-01-13T04:43:08.927Z,95.77
2019-01-13T04:44:12.221Z,101.67
2019-01-13T04:45:15.507Z,99.50
2019-01-13T04:46:18.818Z,91.55
2019-01-13T04:47:22.105Z,91.12
2019-01-13T04:48:25.408Z,95.55
2019-01-13T04:49:28.688Z,90.38
2019-01-13T04:50:32.050Z,91.05
2019-01-13T04:51:35.373Z,88.87
2019-01-13T04:52:38.852Z,85.70
2019-01-13T04:53:42.108Z,87.05
2019-01-13T04:54:45.393Z,85.87
2019-01-13T04:55:48.672Z,93.70
2019-01-13T04:56:51.989Z,85.97
2019-01-13T04:57:55.275Z,93.05
2019-01-13T04:58:58.557Z,89.65
2019-01-13T05:00:01.845Z,90.50
2019-01-13T05:01:05.193Z,92.37
2019-01-13T05:02:08.535Z,89.50
2019-01-13T05:03:11.883Z,89.77
2019-01-13T05:04:15.170Z,91.87
2019-01-13T05:05:18.455Z,89.77
2019-01-13T05:06:21.813Z,86.08
2019-01-13T05:07:25.138Z,91.17
2019-01-13T05:08:28.474Z,91.75
2019-01-13T05:09:31.819Z,89.20
2019-01-13T05:10:35.130Z,92.97
2019-01-13T05:11:38.411Z,105.25
2019-01-13T05:12:42.074Z,108.63
2019-01-13T05:13:45.371Z,107.35
2019-01-13T05:14:48.662Z,116.00
2019-01-13T05:15:51.949Z,118.65
2019-01-13T05:16:55.244Z,124.15
2019-01-13T05:17:58.545Z,111.45
2019-01-13T05:19:01.833Z,113.28
2019-01-13T05:20:08.628Z,105.87
2019-01-13T05:21:11.926Z,108.32
2019-01-13T05:22:15.217Z,128.23
2019-01-13T05:23:18.540Z,101.50
2019-01-13T05:24:21.828Z,103.60
2019-01-13T05:25:25.116Z,106.75
2019-01-13T05:26:28.411Z,118.35
2019-01-13T05:27:31.699Z,108.35
2019-01-13T05:28:35.115Z,109.35
2019-01-13T05:29:39.368Z,107.12
2019-01-13T05:30:42.721Z,117.67
2019-01-13T05:31:46.016Z,103.65
2019-01-13T05:32:49.471Z,109.15
2019-01-13T05:33:53.216Z,103.87
2019-01-13T05:34:56.605Z,102.35
2019-01-13T05:35:59.889Z,105.78
2019-01-13T05:37:04.812Z,105.43
2019-01-13T05:38:08.099Z,129.20
2019-01-13T05:39:11.436Z,377.27
2019-01-13T05:40:16.661Z,236.52
2019-01-13T05:41:19.956Z,156.52
2019-01-13T05:42:23.262Z,127.95
2019-01-13T05:43:26.562Z,120.75
2019-01-13T05:44:29.886Z,115.42
2019-01-13T05:45:33.335Z,98.87
2019-01-13T05:46:36.763Z,98.78
2019-01-13T05:47:40.101Z,102.70
2019-01-13T05:48:43.394Z,158.07
2019-01-13T05:49:46.755Z,116.10
2019-01-13T05:51:09.227Z,134.87
2019-01-13T05:52:12.512Z,99.72
2019-01-13T05:53:15.879Z,212.53
2019-01-13T05:54:19.274Z,124.40
2019-01-13T05:55:22.784Z,125.42
2019-01-13T05:56:26.144Z,145.75
2019-01-13T05:57:29.556Z,143.10
2019-01-13T05:58:32.846Z,148.45
2019-01-13T05:59:36.192Z,136.22
2019-01-13T06:00:40.149Z,134.03
2019-01-13T06:01:49.067Z,118.15
2019-01-13T06:02:48.495Z,118.37
2019-01-13T06:03:51.948Z,86.90
2019-01-13T06:04:55.229Z,90.32
2019-01-13T06:06:00.678Z,92.47
2019-01-13T06:07:03.978Z,110.72
2019-01-13T06:08:07.308Z,100.02
2019-01-13T06:09:10.593Z,89.42
2019-01-13T06:10:16.844Z,84.77
2019-01-13T06:11:20.134Z,89.30
2019-01-13T06:12:23.420Z,91.45
2019-01-13T06:13:26.751Z,94.45
2019-01-13T06:14:30.039Z,109.27
2019-01-13T06:15:33.332Z,113.83
2019-01-13T06:16:36.629Z,123.42
2019-01-13T06:17:39.935Z,134.15
2019-01-13T06:18:43.279Z,131.78
2019-01-13T06:19:46.671Z,129.40
2019-01-13T06:20:49.959Z,138.10
2019-01-13T06:21:53.244Z,153.78
2019-01-13T06:22:56.543Z,144.55
2019-01-13T06:23:59.865Z,141.05
2019-01-13T06:25:03.157Z,132.25
2019-01-13T06:26:06.447Z,128.80
2019-01-13T06:27:09.734Z,129.47
2019-01-13T06:28:13.029Z,138.10
2019-01-13T06:29:16.349Z,138.60
2019-01-13T06:30:20.984Z,136.52
2019-01-13T06:31:24.303Z,149.07
2019-01-13T06:32:27.603Z,151.55
2019-01-13T06:33:30.892Z,166.62
2019-01-13T06:34:34.216Z,159.10
2019-01-13T06:35:37.511Z,169.97
2019-01-13T06:36:40.808Z,160.60
2019-01-13T06:37:44.611Z,177.87
2019-01-13T06:38:47.906Z,182.70
2019-01-13T06:39:51.232Z,191.85
2019-01-13T06:40:54.529Z,206.38
2019-01-13T06:41:57.812Z,205.18
2019-01-13T06:43:01.113Z,195.25
2019-01-13T06:44:04.410Z,187.65
2019-01-13T06:45:13.177Z,179.65
2019-01-13T06:46:16.542Z,173.85
2019-01-13T06:47:19.899Z,168.17
2019-01-13T06:48:23.610Z,167.55
2019-01-13T06:49:27.075Z,160.88
2019-01-13T06:50:30.474Z,137.85
2019-01-13T06:51:33.766Z,126.07
2019-01-13T06:52:37.160Z,112.28
2019-01-13T06:53:40.459Z,120.75
2019-01-13T06:54:43.765Z,124.95
2019-01-13T06:55:47.094Z,121.57
2019-01-13T06:56:50.379Z,92.25
2019-01-13T06:57:54.090Z,91.37
2019-01-13T06:58:57.385Z,88.03
2019-01-13T07:00:00.672Z,76.85
2019-01-13T07:01:04.004Z,83.17
2019-01-13T07:02:07.297Z,96.35
2019-01-13T07:03:10.647Z,98.45
2019-01-13T07:04:13.936Z,83.10
2019-01-13T07:05:17.227Z,79.10
2019-01-13T07:06:20.604Z,83.22
2019-01-13T07:07:23.900Z,108.83
2019-01-13T07:08:27.191Z,116.25
2019-01-13T07:09:30.482Z,112.12
2019-01-13T07:10:33.761Z,97.88
2019-01-13T07:11:37.230Z,89.80
2019-01-13T07:12:40.520Z,85.80
2019-01-13T07:13:43.818Z,74.15
2019-01-13T07:14:47.101Z,70.00
2019-01-13T07:15:50.402Z,65.78
2019-01-13T07:16:53.738Z,75.87
2019-01-13T07:17:57.011Z,89.32
2019-01-13T07:19:00.376Z,113.00
2019-01-13T07:20:06.721Z,143.95
2019-01-13T07:21:10.020Z,146.00
2019-01-13T07:22:13.340Z,152.35
2019-01-13T07:23:16.629Z,148.60
2019-01-13T07:24:19.997Z,131.80
2019-01-13T07:25:23.297Z,133.10
2019-01-13T07:26:26.653Z,130.55
2019-01-13T07:27:29.987Z,122.90
2019-01-13T07:28:33.273Z,121.17
2019-01-13T07:29:36.606Z,134.12
2019-01-13T07:30:39.953Z,141.45
2019-01-13T07:31:43.247Z,118.13
2019-01-13T07:32:46.576Z,120.65
2019-01-13T07:33:50.229Z,126.27
2019-01-13T07:34:53.557Z,126.35
2019-01-13T07:35:56.859Z,122.35
2019-01-13T07:37:00.175Z,129.85
2019-01-13T07:38:03.472Z,123.58
2019-01-13T07:39:07.546Z,122.25
2019-01-13T07:40:16.324Z,123.30
2019-01-13T07:41:19.712Z,120.72
2019-01-13T07:42:23.065Z,129.57
2019-01-13T07:46:33.507Z,126.35
2019-01-13T07:47:43.217Z,132.87
2019-01-13T07:48:48.224Z,115.60
2019-01-13T07:49:51.514Z,115.82
2019-01-13T07:50:59.558Z,127.07
2019-01-13T07:52:04.681Z,137.35
2019-01-13T07:53:08.019Z,130.43
2019-01-13T07:55:43.162Z,123.33
2019-01-13T07:56:54.138Z,111.97
2019-01-13T07:58:01.984Z,137.10
2019-01-13T07:59:11.174Z,137.20
2019-01-13T08:00:20.236Z,178.25
2019-01-13T08:01:32.360Z,155.78
2019-01-13T08:02:52.544Z,157.72
2019-01-13T08:03:55.863Z,123.33
2019-01-13T08:04:59.174Z,110.22
2019-01-13T08:06:02.810Z,116.62
2019-01-13T08:07:06.097Z,124.00
2019-01-13T08:08:09.394Z,112.37
2019-01-13T08:09:12.719Z,111.00
2019-01-13T08:10:16.303Z,111.10
2019-01-13T08:11:19.969Z,103.38
2019-01-13T08:12:23.252Z,104.30
2019-01-13T08:13:26.545Z,101.85
2019-01-13T08:14:29.945Z,102.90
2019-01-13T08:15:33.317Z,99.67
2019-01-13T08:16:36.597Z,104.17
2019-01-13T08:17:39.891Z,104.27
2019-01-13T08:18:43.183Z,101.02
2019-01-13T08:19:46.513Z,102.67
2019-01-13T08:20:49.919Z,103.00
2019-01-13T08:21:53.208Z,93.50
2019-01-13T08:22:56.494Z,94.70
2019-01-13T08:23:59.789Z,86.82
2019-01-13T08:25:03.113Z,88.92
2019-01-13T08:26:06.473Z,80.30
2019-01-13T08:27:09.756Z,88.05
2019-01-13T08:28:13.970Z,75.35
2019-01-13T08:29:17.248Z,69.95
2019-01-13T08:30:21.022Z,76.80
2019-01-13T08:31:24.304Z,76.80
2019-01-13T08:32:27.663Z,72.70
2019-01-13T08:33:30.961Z,67.00
2019-01-13T08:34:34.388Z,71.42
2019-01-13T08:35:37.892Z,70.72
2019-01-13T08:36:41.487Z,74.58
2019-01-13T08:37:44.834Z,76.75
2019-01-13T08:38:48.194Z,83.60
2019-01-13T08:39:51.490Z,84.37
2019-01-13T08:40:54.931Z,87.33
2019-01-13T08:41:58.572Z,71.72
2019-01-13T08:43:02.216Z,67.70
2019-01-13T08:44:05.562Z,53.30
2019-01-13T08:45:10.301Z,55.15
2019-01-13T08:46:13.754Z,46.28
2019-01-13T08:47:17.038Z,46.10
2019-01-13T08:48:20.485Z,44.63
2019-01-13T08:49:23.765Z,41.98
2019-01-13T08:50:27.117Z,35.48
2019-01-13T08:51:31.743Z,39.20
2019-01-13T08:52:35.106Z,42.17
2019-01-13T08:53:38.381Z,37.63
2019-01-13T08:54:41.660Z,32.88
2019-01-13T08:55:44.944Z,30.12
2019-01-13T08:56:48.440Z,31.48
2019-01-13T08:57:51.705Z,31.33
2019-01-13T08:58:55.118Z,28.55
2019-01-13T08:59:58.399Z,22.20
2019-01-13T09:01:01.783Z,28.45
2019-01-13T09:02:05.445Z,22.65
2019-01-13T09:03:08.736Z,24.98
2019-01-13T09:04:12.007Z,43.35
2019-01-13T09:05:15.362Z,24.72
2019-01-13T09:06:18.655Z,34.83
2019-01-13T09:07:22.052Z,34.48
2019-01-13T09:08:25.348Z,37.38
2019-01-13T09:09:30.114Z,32.65
2019-01-13T09:10:34.058Z,29.12
2019-01-13T09:11:37.421Z,24.00
2019-01-13T09:12:40.893Z,32.13
2019-01-13T09:13:44.327Z,59.73
2019-01-13T09:14:47.614Z,65.95
2019-01-13T09:15:50.964Z,76.05
2019-01-13T09:16:54.252Z,98.52
2019-01-13T09:17:57.604Z,88.03
2019-01-13T09:19:00.933Z,93.30
2019-01-13T09:20:07.580Z,90.22
2019-01-13T09:21:10.890Z,91.70
2019-01-13T09:22:14.192Z,83.22
2019-01-13T09:23:17.576Z,88.45
2019-01-13T09:24:20.917Z,80.60
2019-01-13T09:25:24.203Z,75.87
2019-01-13T09:26:27.493Z,78.65
2019-01-13T09:27:30.783Z,81.35
2019-01-13T09:28:34.092Z,82.72
2019-01-13T09:29:42.412Z,82.95
2019-01-13T09:30:42.401Z,88.70
2019-01-13T09:31:45.745Z,87.88
2019-01-13T09:32:49.472Z,74.45
2019-01-13T09:33:52.804Z,79.30
2019-01-13T09:34:56.088Z,80.87
2019-01-13T09:35:59.381Z,77.97
2019-01-13T09:37:02.780Z,85.30
2019-01-13T09:38:06.881Z,82.50
2019-01-13T09:39:10.281Z,86.12
2019-01-13T09:40:16.770Z,90.30
2019-01-13T09:41:20.074Z,87.92
2019-01-13T09:42:23.475Z,79.67
2019-01-13T09:43:26.848Z,72.80
2019-01-13T09:44:30.247Z,65.50
2019-01-13T09:45:33.611Z,72.20
2019-01-13T09:46:36.899Z,69.10
2019-01-13T09:47:40.222Z,75.25
2019-01-13T09:48:43.577Z,77.47
2019-01-13T09:49:49.952Z,79.42
2019-01-13T09:50:51.882Z,91.02
2019-01-13T09:51:55.567Z,78.07
2019-01-13T09:52:58.896Z,76.90
2019-01-13T09:54:02.176Z,74.25
2019-01-13T09:55:08.671Z,77.35
2019-01-13T09:56:11.962Z,78.85
2019-01-13T09:57:15.255Z,84.35
2019-01-13T09:58:19.062Z,96.42
2019-01-13T09:59:22.409Z,100.20
2019-01-13T10:00:28.600Z,102.72
2019-01-13T10:01:32.291Z,128.18
2019-01-13T10:02:35.591Z,126.55
2019-01-13T10:03:40.141Z,145.55
2019-01-13T10:04:43.491Z,103.12
2019-01-13T10:05:46.845Z,108.80
2019-01-13T10:06:50.492Z,113.40
2019-01-13T10:07:53.840Z,115.12
2019-01-13T10:08:57.220Z,116.67
2019-01-13T10:10:00.509Z,149.82
2019-01-13T10:11:03.848Z,129.50
2019-01-13T10:12:07.202Z,119.37
2019-01-13T10:13:10.714Z,118.67
2019-01-13T10:14:14.050Z,113.37
2019-01-13T10:15:19.729Z,129.03
2019-01-13T10:16:23.408Z,156.57
2019-01-13T10:17:26.694Z,126.50
2019-01-13T10:18:30.069Z,136.65
2019-01-13T10:19:33.949Z,126.10
2019-01-13T10:20:37.325Z,112.88
2019-01-13T10:21:41.665Z,118.77
2019-01-13T10:22:45.043Z,114.03
2019-01-13T10:23:48.491Z,105.83
2019-01-13T10:24:51.805Z,120.82
2019-01-13T10:25:55.241Z,111.90
2019-01-13T10:27:00.240Z,133.52
2019-01-13T10:28:03.835Z,112.37
2019-01-13T10:29:07.120Z,103.10
2019-01-13T10:30:16.073Z,100.82
2019-01-13T10:31:19.399Z,105.58
2019-01-13T10:32:22.740Z,130.75
2019-01-13T10:33:26.112Z,123.02
2019-01-13T10:34:29.402Z,122.10
2019-01-13T10:35:32.868Z,116.53
2019-01-13T10:36:36.158Z,120.08
2019-01-13T10:37:39.499Z,118.85
2019-01-13T10:38:43.169Z,123.28
2019-01-13T10:40:05.368Z,121.55
2019-01-13T10:41:08.661Z,117.45
2019-01-13T10:42:11.963Z,108.75
2019-01-13T10:43:15.410Z,102.00
2019-01-13T10:44:18.863Z,107.60
2019-01-13T10:45:23.454Z,114.90
2019-01-13T10:46:26.752Z,97.27
2019-01-13T10:47:35.719Z,102.45
2019-01-13T10:48:40.669Z,98.87
2019-01-13T10:49:44.100Z,83.30
2019-01-13T10:50:47.838Z,86.25
2019-01-13T10:51:52.666Z,66.47
2019-01-13T10:52:57.917Z,62.03
2019-01-13T10:54:01.314Z,57.33
2019-01-13T10:55:07.025Z,53.08
2019-01-13T10:56:12.702Z,64.62
2019-01-13T10:57:19.056Z,69.85
2019-01-13T10:58:22.453Z,80.83
2019-01-13T10:59:25.950Z,84.60
2019-01-13T11:00:33.246Z,85.28
2019-01-13T11:01:38.189Z,71.10
2019-01-13T11:02:41.988Z,68.62
2019-01-13T11:03:46.039Z,72.22
2019-01-13T11:04:49.500Z,57.17
2019-01-13T11:05:55.731Z,60.50
2019-01-13T11:07:00.736Z,58.42
2019-01-13T11:08:11.057Z,65.05
2019-01-13T11:09:11.326Z,61.60
2019-01-13T11:10:19.162Z,82.82
2019-01-13T11:11:22.577Z,116.88
2019-01-13T11:12:25.874Z,83.47
2019-01-13T11:13:29.233Z,70.83
2019-01-13T11:14:32.538Z,66.20
2019-01-13T11:15:35.928Z,73.25
2019-01-13T11:16:39.218Z,67.00
2019-01-13T11:17:42.573Z,65.10
2019-01-13T11:18:45.976Z,66.85
2019-01-13T11:19:49.417Z,69.70
2019-01-13T11:20:52.957Z,70.72
2019-01-13T11:21:56.515Z,71.95
2019-01-13T11:22:59.880Z,69.20
2019-01-13T11:24:03.430Z,69.92
2019-01-13T11:25:08.338Z,68.33
2019-01-13T11:26:11.712Z,65.75
2019-01-13T11:27:15.424Z,72.27
2019-01-13T11:28:18.729Z,71.17
2019-01-13T11:29:22.009Z,66.57
2019-01-13T11:30:26.752Z,70.03
2019-01-13T11:31:30.168Z,70.47
2019-01-13T11:32:33.524Z,69.47
2019-01-13T11:33:36.800Z,71.60
2019-01-13T11:34:40.168Z,75.83
2019-01-13T11:35:45.723Z,66.05
2019-01-13T11:36:49.642Z,90.30
2019-01-13T11:37:53.029Z,77.30
2019-01-13T11:38:56.490Z,85.17
2019-01-13T11:39:59.849Z,117.80
2019-01-13T11:41:03.277Z,106.40
2019-01-13T11:42:06.608Z,106.63
2019-01-13T11:43:11.255Z,103.80
2019-01-13T11:44:14.766Z,107.77
2019-01-13T11:45:18.218Z,115.00
2019-01-13T11:46:23.866Z,93.17
2019-01-13T11:47:40.358Z,91.43
2019-01-13T11:48:43.646Z,92.20
2019-01-13T11:49:47.133Z,84.67
2019-01-13T11:50:50.520Z,91.10
2019-01-13T11:51:54.116Z,98.83
2019-01-13T11:53:05.236Z,96.40
2019-01-13T11:54:22.526Z,96.57
2019-01-13T11:55:28.787Z,80.07
2019-01-13T11:56:32.358Z,72.57
2019-01-13T11:57:35.744Z,67.27
2019-01-13T11:58:39.095Z,63.30
2019-01-13T11:59:46.857Z,83.80
2019-01-13T12:00:50.423Z,61.60
2019-01-13T12:01:53.778Z,48.40
2019-01-13T12:02:57.387Z,53.93
2019-01-13T12:04:01.732Z,43.50
2019-01-13T12:05:06.903Z,63.10
2019-01-13T12:06:10.327Z,57.27
2019-01-13T12:07:13.816Z,47.30
2019-01-13T12:08:17.284Z,48.07
2019-01-13T12:09:20.651Z,36.83
2019-01-13T12:10:24.331Z,43.83
2019-01-13T12:11:27.749Z,34.83
2019-01-13T12:12:31.034Z,40.37
2019-01-13T12:13:34.322Z,32.80
2019-01-13T12:14:37.788Z,45.13
2019-01-13T12:15:41.092Z,39.70
2019-01-13T12:16:45.338Z,36.17
2019-01-13T12:17:48.617Z,37.40
2019-01-13T12:18:52.038Z,33.00
2019-01-13T12:19:55.348Z,41.50
2019-01-13T12:20:58.641Z,34.00
2019-01-13T12:22:02.061Z,34.80
2019-01-13T12:23:05.443Z,31.80
2019-01-13T12:24:08.728Z,25.27
2019-01-13T12:25:14.548Z,22.70
2019-01-13T12:26:17.913Z,42.40
2019-01-13T12:27:21.333Z,41.00
2019-01-13T12:28:24.694Z,34.47
2019-01-13T12:29:27.978Z,31.77
2019-01-13T12:30:32.018Z,24.47
2019-01-13T12:31:35.402Z,29.93
2019-01-13T12:32:38.766Z,25.30
2019-01-13T12:33:42.045Z,31.97
2019-01-13T12:34:45.404Z,43.97
2019-01-13T12:35:48.730Z,18.70
2019-01-13T12:36:52.102Z,29.40
2019-01-13T12:37:57.551Z,25.12
2019-01-13T12:39:00.909Z,29.43
2019-01-13T12:40:10.671Z,23.65
2019-01-13T12:41:14.008Z,27.22
2019-01-13T12:42:17.264Z,23.05
2019-01-13T12:43:20.595Z,34.67
2019-01-13T12:44:23.899Z,40.83
2019-01-13T12:45:27.195Z,33.48
2019-01-13T12:46:30.496Z,36.35
2019-01-13T12:47:33.779Z,35.27
2019-01-13T12:48:37.100Z,38.20
2019-01-13T12:49:40.373Z,37.63
2019-01-13T12:50:43.660Z,58.10
2019-01-13T12:51:46.957Z,57.48
2019-01-13T12:52:50.309Z,49.53
2019-01-13T12:53:53.814Z,47.88
2019-01-13T12:54:57.208Z,39.73
2019-01-13T12:56:00.581Z,36.85
2019-01-13T12:57:04.021Z,49.90
2019-01-13T12:58:07.411Z,49.93
2019-01-13T12:59:10.827Z,58.50
2019-01-13T13:00:18.978Z,66.90
2019-01-13T13:01:22.510Z,64.47
2019-01-13T13:02:25.907Z,52.15
2019-01-13T13:03:31.818Z,44.25
2019-01-13T13:04:34.536Z,51.40
2019-01-13T13:05:37.928Z,40.17
2019-01-13T13:06:41.321Z,47.62
2019-01-13T13:07:45.617Z,34.18
2019-01-13T13:08:48.981Z,37.70
2019-01-13T13:09:52.319Z,27.80
2019-01-13T13:10:55.684Z,32.55
2019-01-13T13:11:59.072Z,26.80
2019-01-13T13:13:02.621Z,25.02
2019-01-13T13:14:05.943Z,24.57
2019-01-13T13:15:09.813Z,22.35
2019-01-13T13:16:13.171Z,25.52
2019-01-13T13:17:16.662Z,42.70
2019-01-13T13:18:20.005Z,43.52
2019-01-13T13:19:23.500Z,28.60
2019-01-13T13:20:26.817Z,30.43
2019-01-13T13:21:31.824Z,23.42
2019-01-13T13:22:36.792Z,21.62
2019-01-13T13:23:40.199Z,38.53
2019-01-13T13:24:43.715Z,62.20
2019-01-13T13:25:47.048Z,61.85
2019-01-13T13:26:50.337Z,61.45
2019-01-13T13:27:53.749Z,88.23
2019-01-13T13:28:57.139Z,86.05
2019-01-13T13:30:01.062Z,75.55
2019-01-13T13:31:04.360Z,68.20
2019-01-13T13:32:07.660Z,51.48
2019-01-13T13:33:11.000Z,48.52
2019-01-13T13:34:14.375Z,51.10
2019-01-13T13:35:17.701Z,58.40
2019-01-13T13:36:21.024Z,65.55